SVR2103 EHAM-EFKT
Flight info
| Callsign | SVR2103 |
|---|---|
| Flight time | N/A |
| Altitude | 35000 |
| Route | SPY4V/36L ANDIK N873 BAVTA N607 AAL DCT KORET DCT ARIWA DCT DEGED DCT MOTIG DCT BESLA DCT EVIMI |
| Aircraft | A20N/M-VGDW/C |
Departure
| Time | N/A |
|---|---|
| Airport | Amsterdam Airport Schiphol (EHAM) |
Arrival
| Time | 2026-04-21 21:26 |
|---|---|
| Airport | Kittilä International Airport (EFKT) |
| Time | Latitude | Longitude | Altitude | Speed | Heading |
|---|---|---|---|---|---|
| 2026-04-21 19:15 | 55.85796 | 8.57583 | 35371 ft | 431 kts | 33° |
| 2026-04-21 19:16 | 55.90881 | 8.63162 | 35371 ft | 432 kts | 33° |
| 2026-04-21 19:16 | 55.96006 | 8.68810 | 35370 ft | 432 kts | 34° |
| 2026-04-21 19:17 | 56.03641 | 8.77251 | 35376 ft | 431 kts | 34° |
| 2026-04-21 19:17 | 56.08728 | 8.82894 | 35371 ft | 431 kts | 34° |
| 2026-04-21 19:18 | 56.13796 | 8.88523 | 35370 ft | 431 kts | 34° |
| 2026-04-21 19:18 | 56.18855 | 8.94166 | 35369 ft | 431 kts | 34° |
| 2026-04-21 19:19 | 56.23928 | 8.99845 | 35369 ft | 432 kts | 33° |
| 2026-04-21 19:19 | 56.29004 | 9.05544 | 35367 ft | 431 kts | 33° |
| 2026-04-21 19:20 | 56.34066 | 9.11243 | 35367 ft | 431 kts | 33° |
| 2026-04-21 19:20 | 56.39143 | 9.16983 | 35365 ft | 431 kts | 33° |
| 2026-04-21 19:21 | 56.44198 | 9.22714 | 35361 ft | 431 kts | 33° |
| 2026-04-21 19:21 | 56.49245 | 9.28456 | 35355 ft | 431 kts | 33° |
| 2026-04-21 19:22 | 56.54295 | 9.34221 | 35353 ft | 432 kts | 33° |
| 2026-04-21 19:22 | 56.59346 | 9.40010 | 35352 ft | 431 kts | 33° |
| 2026-04-21 19:23 | 56.64407 | 9.45825 | 35351 ft | 431 kts | 33° |
| 2026-04-21 19:23 | 56.69435 | 9.51622 | 35351 ft | 430 kts | 33° |
| 2026-04-21 19:24 | 56.74480 | 9.57453 | 35350 ft | 431 kts | 33° |
| 2026-04-21 19:24 | 56.79525 | 9.63304 | 35350 ft | 432 kts | 33° |
| 2026-04-21 19:25 | 56.84570 | 9.69174 | 35352 ft | 432 kts | 34° |
| 2026-04-21 19:25 | 56.89584 | 9.75026 | 35354 ft | 431 kts | 34° |
| 2026-04-21 19:26 | 56.94625 | 9.80930 | 35356 ft | 430 kts | 33° |
| 2026-04-21 19:26 | 56.99631 | 9.86813 | 35356 ft | 430 kts | 33° |
| 2026-04-21 19:27 | 57.04638 | 9.92718 | 35357 ft | 431 kts | 33° |
| 2026-04-21 19:27 | 57.09691 | 9.98683 | 35352 ft | 431 kts | 33° |
| 2026-04-21 19:28 | 57.14819 | 10.04230 | 35355 ft | 431 kts | 31° |
| 2026-04-21 19:28 | 57.20010 | 10.09714 | 35367 ft | 431 kts | 31° |
| 2026-04-21 19:29 | 57.25183 | 10.15208 | 35366 ft | 430 kts | 31° |
| 2026-04-21 19:29 | 57.30344 | 10.20713 | 35357 ft | 430 kts | 30° |
| 2026-04-21 19:30 | 57.35500 | 10.26233 | 35354 ft | 431 kts | 30° |
| 2026-04-21 19:30 | 57.40648 | 10.31764 | 35349 ft | 431 kts | 30° |
| 2026-04-21 19:31 | 57.45808 | 10.37326 | 35345 ft | 430 kts | 30° |
| 2026-04-21 19:31 | 57.50956 | 10.42896 | 35342 ft | 430 kts | 30° |
| 2026-04-21 19:32 | 57.56127 | 10.48508 | 35339 ft | 430 kts | 30° |
| 2026-04-21 19:32 | 57.61249 | 10.54086 | 35339 ft | 430 kts | 30° |
| 2026-04-21 19:33 | 57.66386 | 10.59696 | 35336 ft | 430 kts | 30° |
| 2026-04-21 19:33 | 57.71527 | 10.65332 | 35334 ft | 430 kts | 31° |
| 2026-04-21 19:34 | 57.76695 | 10.71016 | 35331 ft | 429 kts | 31° |
| 2026-04-21 19:34 | 57.81798 | 10.76645 | 35330 ft | 429 kts | 31° |
| 2026-04-21 19:35 | 57.89493 | 10.85172 | 35331 ft | 430 kts | 31° |
| 2026-04-21 19:36 | 57.94599 | 10.90855 | 35331 ft | 430 kts | 30° |
| 2026-04-21 19:36 | 57.99751 | 10.96609 | 35329 ft | 431 kts | 30° |
| 2026-04-21 19:37 | 58.04891 | 11.02366 | 35322 ft | 430 kts | 30° |
| 2026-04-21 19:37 | 58.09966 | 11.08069 | 35325 ft | 429 kts | 30° |
| 2026-04-21 19:38 | 58.15096 | 11.13852 | 35321 ft | 429 kts | 30° |
| 2026-04-21 19:38 | 58.20188 | 11.19614 | 35317 ft | 429 kts | 30° |
| 2026-04-21 19:39 | 58.25288 | 11.25408 | 35317 ft | 430 kts | 30° |
| 2026-04-21 19:39 | 58.30410 | 11.31244 | 35318 ft | 430 kts | 30° |
| 2026-04-21 19:40 | 58.35484 | 11.37042 | 35317 ft | 429 kts | 30° |
| 2026-04-21 19:40 | 58.40593 | 11.42900 | 35313 ft | 429 kts | 30° |
| 2026-04-21 19:41 | 58.45673 | 11.48749 | 35305 ft | 428 kts | 30° |
| 2026-04-21 19:41 | 58.50740 | 11.54602 | 35301 ft | 428 kts | 30° |
| 2026-04-21 19:42 | 58.55829 | 11.60500 | 35297 ft | 428 kts | 30° |
| 2026-04-21 19:42 | 58.60912 | 11.66413 | 35304 ft | 429 kts | 31° |
| 2026-04-21 19:43 | 58.65982 | 11.72329 | 35300 ft | 429 kts | 31° |
| 2026-04-21 19:43 | 58.71062 | 11.78280 | 35309 ft | 429 kts | 31° |
| 2026-04-21 19:44 | 58.76128 | 11.84238 | 35310 ft | 429 kts | 31° |
| 2026-04-21 19:44 | 58.81191 | 11.90244 | 35307 ft | 429 kts | 32° |
| 2026-04-21 19:45 | 58.86150 | 11.96582 | 35311 ft | 429 kts | 33° |
| 2026-04-21 19:45 | 58.91101 | 12.03012 | 35307 ft | 429 kts | 33° |
| 2026-04-21 19:46 | 58.96019 | 12.09418 | 35303 ft | 429 kts | 33° |
| 2026-04-21 19:46 | 59.00969 | 12.15882 | 35296 ft | 429 kts | 33° |
| 2026-04-21 19:47 | 59.04250 | 12.20179 | 35289 ft | 429 kts | 33° |
| 2026-04-21 19:47 | 59.10840 | 12.28836 | 35284 ft | 430 kts | 33° |
| 2026-04-21 19:48 | 59.15752 | 12.35318 | 35286 ft | 430 kts | 33° |
| 2026-04-21 19:48 | 59.20689 | 12.41855 | 35285 ft | 430 kts | 33° |
| 2026-04-21 19:49 | 59.25606 | 12.48386 | 35282 ft | 430 kts | 33° |
| 2026-04-21 19:49 | 59.30515 | 12.54931 | 35279 ft | 430 kts | 33° |
| 2026-04-21 19:50 | 59.35435 | 12.61516 | 35282 ft | 430 kts | 33° |
| 2026-04-21 19:50 | 59.40359 | 12.68128 | 35285 ft | 430 kts | 33° |
| 2026-04-21 19:51 | 59.45271 | 12.74750 | 35281 ft | 430 kts | 33° |
| 2026-04-21 19:51 | 59.50168 | 12.81373 | 35268 ft | 430 kts | 33° |
| 2026-04-21 19:52 | 59.55080 | 12.88042 | 35256 ft | 430 kts | 33° |
| 2026-04-21 19:52 | 59.59956 | 12.94685 | 35265 ft | 430 kts | 33° |
| 2026-04-21 19:53 | 59.64879 | 13.01416 | 35270 ft | 430 kts | 33° |
| 2026-04-21 19:53 | 59.69771 | 13.08130 | 35274 ft | 430 kts | 33° |
| 2026-04-21 19:54 | 59.74642 | 13.14840 | 35274 ft | 430 kts | 33° |
| 2026-04-21 19:54 | 59.79546 | 13.21618 | 35267 ft | 430 kts | 33° |
| 2026-04-21 19:55 | 59.84413 | 13.28372 | 35272 ft | 430 kts | 34° |
| 2026-04-21 19:55 | 59.89298 | 13.35174 | 35272 ft | 430 kts | 34° |
| 2026-04-21 19:56 | 59.94184 | 13.42001 | 35271 ft | 430 kts | 34° |
| 2026-04-21 19:56 | 59.95820 | 13.44293 | 35272 ft | 430 kts | 34° |
| 2026-04-21 19:57 | 60.03801 | 13.55515 | 35283 ft | 430 kts | 34° |
| 2026-04-21 19:57 | 60.08662 | 13.62386 | 35282 ft | 428 kts | 34° |
| 2026-04-21 19:58 | 60.13524 | 13.69282 | 35278 ft | 428 kts | 34° |
| 2026-04-21 19:58 | 60.18366 | 13.76178 | 35274 ft | 428 kts | 34° |
| 2026-04-21 19:59 | 60.23175 | 13.83054 | 35270 ft | 428 kts | 35° |
| 2026-04-21 19:59 | 60.27981 | 13.90113 | 35263 ft | 428 kts | 36° |
| 2026-04-21 20:00 | 60.32735 | 13.97196 | 35262 ft | 428 kts | 36° |
| 2026-04-21 20:00 | 60.37492 | 14.04302 | 35259 ft | 428 kts | 36° |
| 2026-04-21 20:01 | 60.42246 | 14.11424 | 35275 ft | 427 kts | 36° |
| 2026-04-21 20:01 | 60.47016 | 14.18594 | 35269 ft | 426 kts | 36° |
| 2026-04-21 20:02 | 60.51751 | 14.25742 | 35279 ft | 426 kts | 36° |
| 2026-04-21 20:02 | 60.56488 | 14.32916 | 35279 ft | 426 kts | 36° |
| 2026-04-21 20:03 | 60.61216 | 14.40105 | 35275 ft | 426 kts | 36° |
| 2026-04-21 20:03 | 60.65918 | 14.47281 | 35274 ft | 427 kts | 36° |
| 2026-04-21 20:04 | 60.70643 | 14.54516 | 35268 ft | 425 kts | 36° |
| 2026-04-21 20:04 | 60.75343 | 14.61744 | 35268 ft | 424 kts | 36° |
| 2026-04-21 20:05 | 60.80051 | 14.69010 | 35270 ft | 424 kts | 37° |
| 2026-04-21 20:05 | 60.84739 | 14.76271 | 35272 ft | 425 kts | 37° |
| 2026-04-21 20:06 | 60.89420 | 14.83550 | 35275 ft | 424 kts | 37° |
| 2026-04-21 20:06 | 60.94096 | 14.90847 | 35270 ft | 423 kts | 37° |
| 2026-04-21 20:07 | 60.98762 | 14.98161 | 35266 ft | 423 kts | 37° |
| 2026-04-21 20:07 | 61.03426 | 15.05497 | 35256 ft | 422 kts | 36° |
| 2026-04-21 20:08 | 61.08057 | 15.12804 | 35253 ft | 422 kts | 37° |
| 2026-04-21 20:08 | 61.12705 | 15.20166 | 35243 ft | 422 kts | 37° |
| 2026-04-21 20:09 | 61.17335 | 15.27532 | 35230 ft | 422 kts | 37° |
| 2026-04-21 20:09 | 61.21983 | 15.34954 | 35240 ft | 421 kts | 37° |
| 2026-04-21 20:10 | 61.26577 | 15.42319 | 35246 ft | 420 kts | 37° |
| 2026-04-21 20:10 | 61.31203 | 15.49764 | 35251 ft | 421 kts | 37° |
| 2026-04-21 20:11 | 61.35797 | 15.57182 | 35251 ft | 420 kts | 37° |
| 2026-04-21 20:11 | 61.40380 | 15.64610 | 35246 ft | 419 kts | 37° |
| 2026-04-21 20:12 | 61.44970 | 15.72082 | 35242 ft | 419 kts | 38° |
| 2026-04-21 20:12 | 61.49525 | 15.79524 | 35236 ft | 418 kts | 38° |
| 2026-04-21 20:13 | 61.54098 | 15.87026 | 35233 ft | 418 kts | 38° |
| 2026-04-21 20:13 | 61.58646 | 15.94514 | 35232 ft | 418 kts | 38° |
| 2026-04-21 20:14 | 61.63199 | 16.02036 | 35231 ft | 417 kts | 38° |
| 2026-04-21 20:14 | 61.67741 | 16.09571 | 35228 ft | 418 kts | 38° |
| 2026-04-21 20:15 | 61.72268 | 16.17113 | 35228 ft | 416 kts | 38° |
| 2026-04-21 20:15 | 61.76762 | 16.24627 | 35228 ft | 415 kts | 38° |
| 2026-04-21 20:16 | 61.81289 | 16.32227 | 35226 ft | 415 kts | 38° |
| 2026-04-21 20:16 | 61.85783 | 16.39799 | 35222 ft | 416 kts | 38° |
| 2026-04-21 20:17 | 61.90265 | 16.47379 | 35216 ft | 415 kts | 38° |
| 2026-04-21 20:17 | 61.94774 | 16.55038 | 35210 ft | 415 kts | 38° |
| 2026-04-21 20:18 | 61.99252 | 16.62675 | 35207 ft | 415 kts | 38° |
| 2026-04-21 20:18 | 62.03740 | 16.70361 | 35206 ft | 415 kts | 39° |
| 2026-04-21 20:19 | 62.08210 | 16.77939 | 35215 ft | 415 kts | 37° |
| 2026-04-21 20:19 | 62.12966 | 16.84792 | 35219 ft | 414 kts | 32° |
| 2026-04-21 20:20 | 62.17890 | 16.91021 | 35208 ft | 413 kts | 31° |
| 2026-04-21 20:20 | 62.22818 | 16.97205 | 35207 ft | 412 kts | 31° |
| 2026-04-21 20:21 | 62.27739 | 17.03402 | 35204 ft | 411 kts | 31° |
| 2026-04-21 20:21 | 62.32639 | 17.09604 | 35207 ft | 410 kts | 31° |
| 2026-04-21 20:22 | 62.37539 | 17.15829 | 35209 ft | 409 kts | 30° |
| 2026-04-21 20:22 | 62.44846 | 17.25158 | 35210 ft | 409 kts | 31° |
| 2026-04-21 20:23 | 62.49699 | 17.31385 | 35207 ft | 408 kts | 30° |
| 2026-04-21 20:23 | 62.54570 | 17.37657 | 35205 ft | 408 kts | 30° |
| 2026-04-21 20:24 | 62.59404 | 17.43908 | 35207 ft | 407 kts | 30° |
| 2026-04-21 20:24 | 62.64225 | 17.50165 | 35203 ft | 407 kts | 30° |
| 2026-04-21 20:25 | 62.69084 | 17.56494 | 35197 ft | 406 kts | 31° |
| 2026-04-21 20:25 | 62.73874 | 17.62759 | 35183 ft | 406 kts | 30° |
| 2026-04-21 20:26 | 62.78709 | 17.69107 | 35180 ft | 405 kts | 31° |
| 2026-04-21 20:26 | 62.83480 | 17.75396 | 35168 ft | 404 kts | 31° |
| 2026-04-21 20:27 | 62.88290 | 17.81759 | 35166 ft | 404 kts | 31° |
| 2026-04-21 20:27 | 62.93068 | 17.88107 | 35170 ft | 403 kts | 31° |
| 2026-04-21 20:28 | 62.97816 | 17.94435 | 35172 ft | 402 kts | 31° |
| 2026-04-21 20:28 | 63.02584 | 18.00811 | 35178 ft | 401 kts | 31° |
| 2026-04-21 20:29 | 63.07330 | 18.07189 | 35165 ft | 399 kts | 31° |
| 2026-04-21 20:29 | 63.12020 | 18.13518 | 35171 ft | 399 kts | 31° |
| 2026-04-21 20:30 | 63.16732 | 18.19902 | 35158 ft | 399 kts | 31° |
| 2026-04-21 20:30 | 63.21435 | 18.26294 | 35155 ft | 399 kts | 31° |
| 2026-04-21 20:31 | 63.26156 | 18.32733 | 35152 ft | 398 kts | 31° |
| 2026-04-21 20:31 | 63.30848 | 18.39157 | 35148 ft | 398 kts | 31° |
| 2026-04-21 20:32 | 63.35503 | 18.45560 | 35149 ft | 397 kts | 31° |
| 2026-04-21 20:32 | 63.40188 | 18.52028 | 35146 ft | 396 kts | 31° |
| 2026-04-21 20:33 | 63.44856 | 18.58500 | 35142 ft | 396 kts | 31° |
| 2026-04-21 20:33 | 63.49511 | 18.64977 | 35142 ft | 396 kts | 31° |
| 2026-04-21 20:34 | 63.54164 | 18.71477 | 35135 ft | 397 kts | 32° |
| 2026-04-21 20:34 | 63.58826 | 18.78009 | 35132 ft | 396 kts | 32° |
| 2026-04-21 20:35 | 63.63453 | 18.84525 | 35121 ft | 395 kts | 32° |
| 2026-04-21 20:35 | 63.68069 | 18.91048 | 35112 ft | 395 kts | 31° |
| 2026-04-21 20:36 | 63.72716 | 18.97646 | 35119 ft | 395 kts | 31° |
| 2026-04-21 20:36 | 63.77334 | 19.04220 | 35122 ft | 395 kts | 31° |
| 2026-04-21 20:37 | 63.81967 | 19.10846 | 35106 ft | 395 kts | 31° |
| 2026-04-21 20:37 | 63.86591 | 19.17487 | 35100 ft | 395 kts | 31° |
| 2026-04-21 20:38 | 63.91195 | 19.24124 | 35096 ft | 394 kts | 31° |
| 2026-04-21 20:38 | 63.95780 | 19.30753 | 35093 ft | 395 kts | 31° |
| 2026-04-21 20:39 | 64.00402 | 19.37462 | 35088 ft | 397 kts | 31° |
| 2026-04-21 20:39 | 64.05021 | 19.44193 | 35086 ft | 396 kts | 31° |
| 2026-04-21 20:40 | 64.09624 | 19.50938 | 35077 ft | 394 kts | 31° |
| 2026-04-21 20:40 | 64.14236 | 19.57713 | 35073 ft | 394 kts | 31° |
| 2026-04-21 20:41 | 64.18829 | 19.64484 | 35069 ft | 394 kts | 31° |
| 2026-04-21 20:41 | 64.23400 | 19.71262 | 35066 ft | 394 kts | 31° |
| 2026-04-21 20:42 | 64.27989 | 19.78089 | 35059 ft | 394 kts | 31° |
| 2026-04-21 20:42 | 64.32579 | 19.84940 | 35052 ft | 393 kts | 31° |
| 2026-04-21 20:43 | 64.37136 | 19.91775 | 35052 ft | 392 kts | 31° |
| 2026-04-21 20:43 | 64.41656 | 19.98580 | 35048 ft | 392 kts | 31° |
| 2026-04-21 20:44 | 64.46191 | 20.05440 | 35046 ft | 391 kts | 31° |
| 2026-04-21 20:44 | 64.50754 | 20.12367 | 35045 ft | 392 kts | 31° |
| 2026-04-21 20:45 | 64.55249 | 20.19221 | 35038 ft | 390 kts | 31° |
| 2026-04-21 20:45 | 64.59766 | 20.26135 | 35036 ft | 389 kts | 31° |
| 2026-04-21 20:46 | 64.64280 | 20.33075 | 35037 ft | 390 kts | 31° |
| 2026-04-21 20:46 | 64.68755 | 20.39984 | 35043 ft | 388 kts | 31° |
| 2026-04-21 20:47 | 64.73247 | 20.46944 | 35042 ft | 387 kts | 30° |
| 2026-04-21 20:47 | 64.77686 | 20.53850 | 35041 ft | 386 kts | 30° |
| 2026-04-21 20:48 | 64.82157 | 20.60821 | 35044 ft | 387 kts | 31° |
| 2026-04-21 20:48 | 64.86603 | 20.67796 | 35044 ft | 387 kts | 31° |
| 2026-04-21 20:49 | 64.91038 | 20.74781 | 35030 ft | 385 kts | 31° |
| 2026-04-21 20:49 | 64.95478 | 20.81801 | 35023 ft | 384 kts | 31° |
| 2026-04-21 20:50 | 64.99879 | 20.88788 | 35008 ft | 386 kts | 30° |
| 2026-04-21 20:50 | 65.04316 | 20.95861 | 35007 ft | 386 kts | 31° |
| 2026-04-21 20:51 | 65.08745 | 21.02952 | 34981 ft | 385 kts | 30° |
| 2026-04-21 20:51 | 65.13158 | 21.10039 | 34991 ft | 385 kts | 31° |
| 2026-04-21 20:52 | 65.17580 | 21.17167 | 34985 ft | 385 kts | 31° |
| 2026-04-21 20:52 | 65.21981 | 21.24303 | 34973 ft | 386 kts | 30° |
| 2026-04-21 20:53 | 65.26396 | 21.31483 | 34984 ft | 386 kts | 30° |
| 2026-04-21 20:53 | 65.30829 | 21.38725 | 34972 ft | 387 kts | 30° |
| 2026-04-21 20:54 | 65.35249 | 21.45963 | 34973 ft | 388 kts | 30° |
| 2026-04-21 20:54 | 65.39658 | 21.53233 | 34980 ft | 388 kts | 30° |
| 2026-04-21 20:55 | 65.44106 | 21.60582 | 34981 ft | 388 kts | 30° |
| 2026-04-21 20:55 | 65.48524 | 21.67919 | 34982 ft | 388 kts | 31° |
| 2026-04-21 20:56 | 65.52945 | 21.75295 | 34975 ft | 389 kts | 30° |
| 2026-04-21 20:56 | 65.57381 | 21.82724 | 34987 ft | 389 kts | 30° |
| 2026-04-21 20:57 | 65.61803 | 21.90157 | 34976 ft | 390 kts | 30° |
| 2026-04-21 20:57 | 65.66222 | 21.97626 | 34979 ft | 390 kts | 30° |
| 2026-04-21 20:58 | 65.70664 | 22.05155 | 34978 ft | 389 kts | 30° |
| 2026-04-21 20:58 | 65.75060 | 22.12640 | 34970 ft | 389 kts | 30° |
| 2026-04-21 20:59 | 65.79471 | 22.20188 | 34969 ft | 389 kts | 30° |
| 2026-04-21 20:59 | 65.83903 | 22.27812 | 34965 ft | 390 kts | 30° |
| 2026-04-21 21:00 | 65.88284 | 22.35394 | 34949 ft | 390 kts | 30° |
| 2026-04-21 21:00 | 65.92699 | 22.43108 | 34959 ft | 390 kts | 30° |
| 2026-04-21 21:01 | 65.97071 | 22.50798 | 34945 ft | 389 kts | 30° |
| 2026-04-21 21:01 | 66.01467 | 22.58553 | 34948 ft | 392 kts | 30° |
| 2026-04-21 21:02 | 66.05874 | 22.66358 | 34949 ft | 392 kts | 31° |
| 2026-04-21 21:02 | 66.10272 | 22.74189 | 34952 ft | 392 kts | 31° |
| 2026-04-21 21:03 | 66.14664 | 22.82041 | 34952 ft | 392 kts | 31° |
| 2026-04-21 21:03 | 66.19064 | 22.89947 | 34947 ft | 394 kts | 30° |
| 2026-04-21 21:04 | 66.23456 | 22.97862 | 34949 ft | 393 kts | 30° |
| 2026-04-21 21:04 | 66.27857 | 23.05839 | 34944 ft | 393 kts | 30° |
| 2026-04-21 21:05 | 66.32269 | 23.13874 | 34913 ft | 395 kts | 30° |
| 2026-04-21 21:05 | 66.34463 | 23.17882 | 34712 ft | 394 kts | 30° |
| 2026-04-21 21:05 | 66.36638 | 23.21861 | 34383 ft | 390 kts | 30° |
| 2026-04-21 21:06 | 66.38806 | 23.25844 | 33836 ft | 389 kts | 30° |
| 2026-04-21 21:06 | 66.40960 | 23.29792 | 33155 ft | 390 kts | 30° |
| 2026-04-21 21:06 | 66.43139 | 23.33804 | 32394 ft | 393 kts | 29° |
| 2026-04-21 21:06 | 66.45317 | 23.37820 | 31585 ft | 396 kts | 30° |
| 2026-04-21 21:07 | 66.47534 | 23.41921 | 30738 ft | 399 kts | 30° |
| 2026-04-21 21:07 | 66.49741 | 23.46011 | 29768 ft | 402 kts | 29° |
| 2026-04-21 21:07 | 66.51961 | 23.50144 | 28811 ft | 400 kts | 29° |
| 2026-04-21 21:07 | 66.54192 | 23.54310 | 27854 ft | 402 kts | 28° |
| 2026-04-21 21:08 | 66.56409 | 23.58453 | 27197 ft | 399 kts | 28° |
| 2026-04-21 21:08 | 66.58614 | 23.62585 | 26590 ft | 395 kts | 28° |
| 2026-04-21 21:08 | 66.60796 | 23.66684 | 26007 ft | 392 kts | 29° |
| 2026-04-21 21:08 | 66.62960 | 23.70758 | 25413 ft | 389 kts | 28° |
| 2026-04-21 21:09 | 66.65093 | 23.74775 | 24855 ft | 387 kts | 28° |
| 2026-04-21 21:09 | 66.67233 | 23.78810 | 24286 ft | 386 kts | 28° |
| 2026-04-21 21:09 | 66.69373 | 23.82860 | 23701 ft | 385 kts | 28° |
| 2026-04-21 21:09 | 66.71496 | 23.86874 | 23122 ft | 385 kts | 27° |
| 2026-04-21 21:10 | 66.73631 | 23.90918 | 22536 ft | 385 kts | 28° |
| 2026-04-21 21:10 | 66.75754 | 23.94956 | 21984 ft | 384 kts | 28° |
| 2026-04-21 21:10 | 66.77874 | 23.99003 | 21403 ft | 384 kts | 28° |
| 2026-04-21 21:10 | 66.80003 | 24.03068 | 20792 ft | 384 kts | 28° |
| 2026-04-21 21:11 | 66.82097 | 24.07078 | 20234 ft | 384 kts | 29° |
| 2026-04-21 21:11 | 66.84218 | 24.11152 | 19650 ft | 383 kts | 29° |
| 2026-04-21 21:11 | 66.86340 | 24.15237 | 19014 ft | 383 kts | 30° |
| 2026-04-21 21:11 | 66.88455 | 24.19319 | 18423 ft | 383 kts | 30° |
| 2026-04-21 21:12 | 66.90550 | 24.23371 | 17869 ft | 382 kts | 30° |
| 2026-04-21 21:12 | 66.92628 | 24.27408 | 17311 ft | 381 kts | 30° |
| 2026-04-21 21:12 | 66.94729 | 24.31501 | 16729 ft | 379 kts | 30° |
| 2026-04-21 21:12 | 66.96819 | 24.35568 | 16158 ft | 377 kts | 30° |
| 2026-04-21 21:13 | 66.98877 | 24.39590 | 15603 ft | 375 kts | 30° |
| 2026-04-21 21:13 | 67.00881 | 24.43513 | 15052 ft | 373 kts | 30° |
| 2026-04-21 21:13 | 67.02922 | 24.47510 | 14452 ft | 372 kts | 31° |
| 2026-04-21 21:13 | 67.04959 | 24.51508 | 13841 ft | 370 kts | 31° |
| 2026-04-21 21:14 | 67.06987 | 24.55502 | 13209 ft | 369 kts | 30° |
| 2026-04-21 21:14 | 67.09003 | 24.59484 | 12602 ft | 367 kts | 31° |
| 2026-04-21 21:14 | 67.11016 | 24.63467 | 12001 ft | 364 kts | 30° |
| 2026-04-21 21:14 | 67.12981 | 24.67364 | 11460 ft | 361 kts | 31° |
| 2026-04-21 21:15 | 67.14951 | 24.71274 | 10892 ft | 357 kts | 31° |
| 2026-04-21 21:15 | 67.16872 | 24.75110 | 10656 ft | 339 kts | 31° |
| 2026-04-21 21:15 | 67.18642 | 24.78678 | 10465 ft | 310 kts | 31° |
| 2026-04-21 21:15 | 67.20260 | 24.81942 | 10299 ft | 284 kts | 30° |
| 2026-04-21 21:16 | 67.21755 | 24.84941 | 10136 ft | 267 kts | 29° |
| 2026-04-21 21:16 | 67.23199 | 24.87816 | 10004 ft | 260 kts | 29° |
| 2026-04-21 21:16 | 67.24665 | 24.90399 | 9856 ft | 249 kts | 18° |
| 2026-04-21 21:16 | 67.26257 | 24.91807 | 9685 ft | 240 kts | 5° |
| 2026-04-21 21:17 | 67.27904 | 24.92278 | 9239 ft | 240 kts | 359° |
| 2026-04-21 21:17 | 67.29565 | 24.92581 | 8864 ft | 240 kts | 359° |
| 2026-04-21 21:17 | 67.31193 | 24.92875 | 8608 ft | 235 kts | 359° |
| 2026-04-21 21:17 | 67.32808 | 24.93172 | 8329 ft | 231 kts | 359° |
| 2026-04-21 21:18 | 67.34400 | 24.93469 | 7971 ft | 230 kts | 359° |
| 2026-04-21 21:18 | 67.35987 | 24.93767 | 7595 ft | 229 kts | 359° |
| 2026-04-21 21:18 | 67.37573 | 24.94068 | 7222 ft | 228 kts | 359° |
| 2026-04-21 21:18 | 67.39117 | 24.94367 | 6859 ft | 220 kts | 359° |
| 2026-04-21 21:19 | 67.40624 | 24.94659 | 6487 ft | 217 kts | 359° |
| 2026-04-21 21:19 | 67.42107 | 24.94948 | 6123 ft | 214 kts | 359° |
| 2026-04-21 21:19 | 67.43578 | 24.95233 | 5770 ft | 210 kts | 359° |
| 2026-04-21 21:19 | 67.45004 | 24.95506 | 5424 ft | 207 kts | 358° |
| 2026-04-21 21:20 | 67.46427 | 24.95781 | 5079 ft | 205 kts | 358° |
| 2026-04-21 21:20 | 67.47831 | 24.96053 | 4743 ft | 202 kts | 358° |
| 2026-04-21 21:20 | 67.49221 | 24.96323 | 4405 ft | 200 kts | 358° |
| 2026-04-21 21:20 | 67.50590 | 24.96551 | 4068 ft | 196 kts | 354° |
| 2026-04-21 21:21 | 67.51933 | 24.96272 | 3788 ft | 190 kts | 345° |
| 2026-04-21 21:21 | 67.53175 | 24.95657 | 3761 ft | 173 kts | 342° |
| 2026-04-21 21:21 | 67.54319 | 24.94978 | 3747 ft | 171 kts | 341° |
| 2026-04-21 21:21 | 67.55472 | 24.94243 | 3710 ft | 170 kts | 341° |
| 2026-04-21 21:22 | 67.56615 | 24.93500 | 3607 ft | 164 kts | 340° |
| 2026-04-21 21:22 | 67.57691 | 24.92799 | 3355 ft | 159 kts | 340° |
| 2026-04-21 21:22 | 67.58745 | 24.92110 | 3074 ft | 151 kts | 340° |
| 2026-04-21 21:22 | 67.59727 | 24.91478 | 2823 ft | 139 kts | 338° |
| 2026-04-21 21:23 | 67.60655 | 24.90863 | 2627 ft | 138 kts | 340° |
| 2026-04-21 21:23 | 67.61584 | 24.90250 | 2412 ft | 138 kts | 340° |
| 2026-04-21 21:23 | 67.62502 | 24.89658 | 2174 ft | 137 kts | 335° |
| 2026-04-21 21:23 | 67.63415 | 24.89054 | 1985 ft | 135 kts | 342° |
| 2026-04-21 21:24 | 67.64324 | 24.88472 | 1752 ft | 135 kts | 335° |
| 2026-04-21 21:24 | 67.65232 | 24.87878 | 1552 ft | 135 kts | 336° |
| 2026-04-21 21:24 | 67.66147 | 24.87273 | 1369 ft | 136 kts | 342° |
| 2026-04-21 21:24 | 67.67066 | 24.86675 | 1116 ft | 138 kts | 339° |
| 2026-04-21 21:25 | 67.68005 | 24.86062 | 920 ft | 138 kts | 341° |
| 2026-04-21 21:25 | 67.68932 | 24.85439 | 720 ft | 138 kts | 344° |
| 2026-04-21 21:25 | 67.69876 | 24.84816 | 631 ft | 136 kts | 343° |
| 2026-04-21 21:25 | 67.70528 | 24.84406 | 631 ft | 57 kts | 345° |
| 2026-04-21 21:26 | 67.70827 | 24.84210 | 631 ft | 25 kts | 346° |
| 2026-04-21 21:26 | 67.70954 | 24.84146 | 631 ft | 10 kts | 1° |
| 2026-04-21 21:26 | 67.70975 | 24.84113 | 631 ft | 3 kts | 236° |
| 2026-04-21 21:26 | 67.70940 | 24.84124 | 631 ft | 6 kts | 159° |
| 2026-04-21 21:27 | 67.70891 | 24.84171 | 631 ft | 8 kts | 162° |
| 2026-04-21 21:27 | 67.70822 | 24.84220 | 631 ft | 11 kts | 165° |
| 2026-04-21 21:27 | 67.70735 | 24.84288 | 631 ft | 12 kts | 142° |
| 2026-04-21 21:27 | 67.70729 | 24.84509 | 631 ft | 14 kts | 77° |
| 2026-04-21 21:28 | 67.70700 | 24.84741 | 628 ft | 15 kts | 158° |
| 2026-04-21 21:28 | 67.70593 | 24.84828 | 628 ft | 17 kts | 166° |
| 2026-04-21 21:28 | 67.70333 | 24.84983 | 628 ft | 20 kts | 165° |
| 2026-04-21 21:29 | 67.70188 | 24.85080 | 628 ft | 22 kts | 167° |
| 2026-04-21 21:29 | 67.70032 | 24.85177 | 627 ft | 23 kts | 167° |
| 2026-04-21 21:29 | 67.69869 | 24.85281 | 628 ft | 24 kts | 166° |
| 2026-04-21 21:29 | 67.69748 | 24.85375 | 627 ft | 15 kts | 164° |
| 2026-04-21 21:30 | 67.69652 | 24.85439 | 628 ft | 8 kts | 166° |
| 2026-04-21 21:30 | 67.69627 | 24.85546 | 628 ft | 7 kts | 101° |
| 2026-04-21 21:30 | 67.69606 | 24.85644 | 629 ft | 0 kts | 123° |